sensor_id;sensor_type;location;lat;lon;timestamp;pressure;altitude;pressure_sealevel;temperature;humidity
72560;BME280;62987;52.382;9.752;2023-06-22T09:40:20;100947.00;;;25.26;53.91
72560;BME280;62987;52.382;9.752;2023-06-22T09:42:48;101062.03;;;25.93;55.50
72560;BME280;62987;52.382;9.752;2023-06-22T09:45:16;101048.31;;;25.84;55.39
72560;BME280;62987;52.382;9.752;2023-06-22T09:47:44;100956.03;;;25.27;55.16
72560;BME280;62987;52.382;9.752;2023-06-22T09:50:15;101069.66;;;26.07;55.55
72560;BME280;62987;52.382;9.752;2023-06-22T09:52:43;101053.41;;;25.97;54.84
72560;BME280;62987;52.382;9.752;2023-06-22T09:55:14;101076.03;;;26.25;54.90
72560;BME280;62987;52.382;9.752;2023-06-22T09:57:44;101078.13;;;26.31;54.86
72560;BME280;62987;52.382;9.752;2023-06-22T10:00:14;101001.28;;;25.82;54.87
72560;BME280;62987;52.382;9.752;2023-06-22T10:02:43;101070.63;;;26.33;55.08
72560;BME280;62987;52.382;9.752;2023-06-22T10:05:14;101066.19;;;26.50;53.83
72560;BME280;62987;52.382;9.752;2023-06-22T10:07:43;101061.16;;;26.45;53.59
72560;BME280;62987;52.382;9.752;2023-06-22T10:10:12;101058.91;;;26.23;54.71
72560;BME280;62987;52.382;9.752;2023-06-22T10:12:47;100991.84;;;25.77;55.38
72560;BME280;62987;52.382;9.752;2023-06-22T10:15:15;101046.69;;;26.09;55.71
72560;BME280;62987;52.382;9.752;2023-06-22T10:17:44;101055.97;;;25.99;56.10
72560;BME280;62987;52.382;9.752;2023-06-22T10:20:12;101043.88;;;25.83;56.68
72560;BME280;62987;52.382;9.752;2023-06-22T10:22:45;101051.59;;;25.88;57.04
72560;BME280;62987;52.382;9.752;2023-06-22T10:25:13;100984.22;;;25.63;57.03
72560;BME280;62987;52.382;9.752;2023-06-22T10:27:41;101029.94;;;25.86;57.07
72560;BME280;62987;52.382;9.752;2023-06-22T10:30:12;101042.09;;;26.10;57.01
72560;BME280;62987;52.382;9.752;2023-06-22T10:32:41;101031.28;;;26.18;56.98
72560;BME280;62987;52.382;9.752;2023-06-22T10:35:10;101013.88;;;26.19;56.12
72560;BME280;62987;52.382;9.752;2023-06-22T10:37:41;101038.91;;;26.32;56.25
72560;BME280;62987;52.382;9.752;2023-06-22T10:40:11;101023.09;;;26.18;55.76
72560;BME280;62987;52.382;9.752;2023-06-22T10:42:39;101035.75;;;26.45;55.95
72560;BME280;62987;52.382;9.752;2023-06-22T10:45:08;101026.34;;;26.65;55.49
72560;BME280;62987;52.382;9.752;2023-06-22T10:47:37;101023.16;;;26.70;55.86
72560;BME280;62987;52.382;9.752;2023-06-22T10:50:07;101015.34;;;26.75;54.80
72560;BME280;62987;52.382;9.752;2023-06-22T10:52:35;101003.41;;;26.50;55.76
72560;BME280;62987;52.382;9.752;2023-06-22T10:55:03;101009.66;;;26.68;55.71
72560;BME280;62987;52.382;9.752;2023-06-22T10:57:31;101017.38;;;26.73;55.56
72560;BME280;62987;52.382;9.752;2023-06-22T10:59:59;101021.53;;;26.59;56.37
72560;BME280;62987;52.382;9.752;2023-06-22T11:02:29;101011.53;;;26.67;56.06
72560;BME280;62987;52.382;9.752;2023-06-22T11:04:58;101003.06;;;26.79;54.82
72560;BME280;62987;52.382;9.752;2023-06-22T11:07:28;101007.47;;;26.97;54.31
72560;BME280;62987;52.382;9.752;2023-06-22T11:09:56;100986.13;;;26.93;54.76
72560;BME280;62987;52.382;9.752;2023-06-22T11:12:24;100988.28;;;27.15;54.31
72560;BME280;62987;52.382;9.752;2023-06-22T11:14:52;101003.31;;;27.19;54.29
72560;BME280;62987;52.382;9.752;2023-06-22T11:17:20;100992.34;;;27.11;54.46
72560;BME280;62987;52.382;9.752;2023-06-22T11:19:48;100997.00;;;27.19;54.00
72560;BME280;62987;52.382;9.752;2023-06-22T11:22:17;100993.75;;;27.23;52.87
72560;BME280;62987;52.382;9.752;2023-06-22T11:24:45;100992.69;;;27.16;54.04
72560;BME280;62987;52.382;9.752;2023-06-22T11:27:13;100994.66;;;26.98;53.38
72560;BME280;62987;52.382;9.752;2023-06-22T11:29:43;100995.38;;;27.00;54.51
72560;BME280;62987;52.382;9.752;2023-06-22T11:32:11;100989.00;;;26.91;54.40
72560;BME280;62987;52.382;9.752;2023-06-22T11:34:40;100970.25;;;26.71;55.56
72560;BME280;62987;52.382;9.752;2023-06-22T11:37:08;100973.00;;;26.71;54.88
72560;BME280;62987;52.382;9.752;2023-06-22T11:39:38;100981.59;;;26.84;54.40
72560;BME280;62987;52.382;9.752;2023-06-22T11:42:18;100984.19;;;27.19;54.34
72560;BME280;62987;52.382;9.752;2023-06-22T11:44:46;100967.28;;;27.82;51.61
72560;BME280;62987;52.382;9.752;2023-06-22T11:47:14;100976.53;;;28.21;51.04
72560;BME280;62987;52.382;9.752;2023-06-22T11:49:42;100948.66;;;27.86;51.04
72560;BME280;62987;52.382;9.752;2023-06-22T11:52:10;100947.81;;;27.93;51.56
72560;BME280;62987;52.382;9.752;2023-06-22T11:54:41;100949.84;;;28.07;51.69
72560;BME280;62987;52.382;9.752;2023-06-22T11:57:09;100944.88;;;29.07;48.73
72560;BME280;62987;52.382;9.752;2023-06-22T11:59:39;100933.78;;;29.31;47.91
72560;BME280;62987;52.382;9.752;2023-06-22T12:02:07;100926.38;;;30.08;46.69
72560;BME280;62987;52.382;9.752;2023-06-22T12:04:36;100929.31;;;31.03;43.86
72560;BME280;62987;52.382;9.752;2023-06-22T12:07:06;100914.88;;;31.87;41.53
72560;BME280;62987;52.382;9.752;2023-06-22T12:09:34;100902.59;;;32.39;41.08
72560;BME280;62987;52.382;9.752;2023-06-22T12:12:04;100890.53;;;31.91;40.28
72560;BME280;62987;52.382;9.752;2023-06-22T12:14:32;100899.13;;;30.73;43.13
72560;BME280;62987;52.382;9.752;2023-06-22T12:17:01;100907.03;;;30.24;45.21
72560;BME280;62987;52.382;9.752;2023-06-22T12:19:31;100910.09;;;29.92;46.07
72560;BME280;62987;52.382;9.752;2023-06-22T12:21:59;100896.31;;;29.54;46.39
72560;BME280;62987;52.382;9.752;2023-06-22T12:24:27;100886.44;;;29.45;46.23
72560;BME280;62987;52.382;9.752;2023-06-22T12:26:55;100890.59;;;29.33;46.48
72560;BME280;62987;52.382;9.752;2023-06-22T12:29:25;100883.28;;;28.94;47.09
72560;BME280;62987;52.382;9.752;2023-06-22T12:31:53;100878.28;;;28.98;47.15
72560;BME280;62987;52.382;9.752;2023-06-22T12:34:21;100867.44;;;28.74;48.23
72560;BME280;62987;52.382;9.752;2023-06-22T12:36:49;100874.44;;;28.84;48.00
72560;BME280;62987;52.382;9.752;2023-06-22T12:39:17;100877.75;;;28.63;49.14
72560;BME280;62987;52.382;9.752;2023-06-22T12:41:45;100872.75;;;28.67;49.14
72560;BME280;62987;52.382;9.752;2023-06-22T12:44:14;100870.13;;;28.90;49.36
72560;BME280;62987;52.382;9.752;2023-06-22T12:46:43;100866.47;;;28.97;49.00
72560;BME280;62987;52.382;9.752;2023-06-22T12:49:11;100871.53;;;29.17;47.40
72560;BME280;62987;52.382;9.752;2023-06-22T12:51:40;100847.63;;;29.02;48.39
72560;BME280;62987;52.382;9.752;2023-06-22T12:54:11;100862.25;;;28.87;48.50
72560;BME280;62987;52.382;9.752;2023-06-22T12:56:39;100846.41;;;28.66;48.76
72560;BME280;62987;52.382;9.752;2023-06-22T12:59:10;100833.53;;;28.36;49.93
72560;BME280;62987;52.382;9.752;2023-06-22T13:01:39;100832.03;;;28.09;50.98
72560;BME280;62987;52.382;9.752;2023-06-22T13:04:08;100839.88;;;28.36;50.86
72560;BME280;62987;52.382;9.752;2023-06-22T13:06:37;100841.75;;;28.36;51.08
72560;BME280;62987;52.382;9.752;2023-06-22T13:09:06;100838.38;;;28.17;52.24
72560;BME280;62987;52.382;9.752;2023-06-22T13:11:47;100852.00;;;28.34;51.50
72560;BME280;62987;52.382;9.752;2023-06-22T13:14:15;100824.00;;;28.23;52.72
72560;BME280;62987;52.382;9.752;2023-06-22T13:16:43;100821.00;;;27.86;57.68
72560;BME280;62987;52.382;9.752;2023-06-22T13:19:13;100839.44;;;27.68;75.52
72560;BME280;62987;52.382;9.752;2023-06-22T13:21:41;100837.50;;;27.12;73.52
72560;BME280;62987;52.382;9.752;2023-06-22T13:24:09;100843.94;;;26.44;76.33
72560;BME280;62987;52.382;9.752;2023-06-22T13:26:38;100846.47;;;25.94;85.48
72560;BME280;62987;52.382;9.752;2023-06-22T13:29:09;100840.06;;;25.42;90.00
72560;BME280;62987;52.382;9.752;2023-06-22T13:31:37;100811.56;;;24.83;90.97
72560;BME280;62987;52.382;9.752;2023-06-22T13:34:05;100829.13;;;24.71;90.07
72560;BME280;62987;52.382;9.752;2023-06-22T13:36:34;100835.78;;;24.59;92.28
72560;BME280;62987;52.382;9.752;2023-06-22T13:39:04;100833.53;;;24.45;91.04
72560;BME280;62987;52.382;9.752;2023-06-22T13:41:33;100843.91;;;24.32;89.92
72560;BME280;62987;52.382;9.752;2023-06-22T13:44:01;100839.06;;;24.25;86.62
72560;BME280;62987;52.382;9.752;2023-06-22T13:46:29;100846.53;;;24.23;88.73
72560;BME280;62987;52.382;9.752;2023-06-22T13:48:57;100823.53;;;24.08;89.30
72560;BME280;62987;52.382;9.752;2023-06-22T13:51:25;100840.94;;;24.25;89.69
72560;BME280;62987;52.382;9.752;2023-06-22T13:53:54;100827.94;;;24.19;86.91
72560;BME280;62987;52.382;9.752;2023-06-22T13:56:22;100841.19;;;24.32;87.76
72560;BME280;62987;52.382;9.752;2023-06-22T13:58:50;100829.47;;;24.31;86.54
72560;BME280;62987;52.382;9.752;2023-06-22T14:01:18;100820.16;;;24.34;85.14
72560;BME280;62987;52.382;9.752;2023-06-22T14:03:47;100833.25;;;24.48;83.42
72560;BME280;62987;52.382;9.752;2023-06-22T14:06:16;100805.22;;;24.47;84.03
72560;BME280;62987;52.382;9.752;2023-06-22T14:08:44;100791.03;;;24.44;82.05
72560;BME280;62987;52.382;9.752;2023-06-22T14:11:13;100738.56;;;24.34;82.33
72560;BME280;62987;52.382;9.752;2023-06-22T14:13:41;100704.84;;;24.26;84.81
72560;BME280;62987;52.382;9.752;2023-06-22T14:16:09;100694.41;;;23.95;91.67
72560;BME280;62987;52.382;9.752;2023-06-22T14:18:37;100726.03;;;23.59;94.09
72560;BME280;62987;52.382;9.752;2023-06-22T14:21:06;100729.50;;;23.13;100.00
72560;BME280;62987;52.382;9.752;2023-06-22T14:23:35;100728.66;;;22.93;100.00
72560;BME280;62987;52.382;9.752;2023-06-22T14:26:04;100737.94;;;22.81;100.00
72560;BME280;62987;52.382;9.752;2023-06-22T14:28:33;100742.78;;;22.77;100.00
72560;BME280;62987;52.382;9.752;2023-06-22T14:31:01;100720.06;;;22.68;100.00
72560;BME280;62987;52.382;9.752;2023-06-22T14:33:29;100720.09;;;22.88;100.00
72560;BME280;62987;52.382;9.752;2023-06-22T14:35:57;100710.94;;;22.98;100.00
72560;BME280;62987;52.382;9.752;2023-06-22T14:38:25;100701.78;;;23.09;100.00
72560;BME280;62987;52.382;9.752;2023-06-22T14:40:54;100701.19;;;23.15;100.00
72560;BME280;62987;52.382;9.752;2023-06-22T14:43:44;100713.78;;;23.16;100.00
72560;BME280;62987;52.382;9.752;2023-06-22T14:46:14;100730.19;;;23.15;100.00
72560;BME280;62987;52.382;9.752;2023-06-22T14:48:42;100736.22;;;22.99;100.00
72560;BME280;62987;52.382;9.752;2023-06-22T14:51:11;100745.22;;;22.90;100.00
72560;BME280;62987;52.382;9.752;2023-06-22T14:53:44;100762.94;;;22.94;99.99
72560;BME280;62987;52.382;9.752;2023-06-22T14:56:13;100752.66;;;22.88;100.00
72560;BME280;62987;52.382;9.752;2023-06-22T14:58:44;100753.91;;;22.84;100.00
72560;BME280;62987;52.382;9.752;2023-06-22T15:01:13;100734.63;;;22.67;99.58
72560;BME280;62987;52.382;9.752;2023-06-22T15:03:44;100763.91;;;22.83;99.57
72560;BME280;62987;52.382;9.752;2023-06-22T15:06:12;100743.22;;;22.73;99.91
72560;BME280;62987;52.382;9.752;2023-06-22T15:08:41;100747.63;;;22.74;100.00
72560;BME280;62987;52.382;9.752;2023-06-22T15:11:10;100758.19;;;22.77;99.72
72560;BME280;62987;52.382;9.752;2023-06-22T15:13:39;100783.50;;;22.87;98.34
72560;BME280;62987;52.382;9.752;2023-06-22T15:16:08;100781.41;;;22.69;100.00
72560;BME280;62987;52.382;9.752;2023-06-22T15:18:42;100786.81;;;22.50;100.00
72560;BME280;62987;52.382;9.752;2023-06-22T15:21:12;100805.81;;;22.20;100.00
72560;BME280;62987;52.382;9.752;2023-06-22T15:23:40;100808.75;;;21.86;100.00
72560;BME280;62987;52.382;9.752;2023-06-22T15:26:08;100809.06;;;21.42;100.00
72560;BME280;62987;52.382;9.752;2023-06-22T15:28:39;100802.06;;;20.64;100.00
72560;BME280;62987;52.382;9.752;2023-06-22T15:31:11;100791.53;;;20.28;100.00
72560;BME280;62987;52.382;9.752;2023-06-22T15:33:40;100772.00;;;20.24;100.00
72560;BME280;62987;52.382;9.752;2023-06-22T15:36:08;100753.56;;;20.29;100.00
72560;BME280;62987;52.382;9.752;2023-06-22T15:38:36;100730.50;;;20.25;100.00
72560;BME280;62987;52.382;9.752;2023-06-22T15:41:04;100722.06;;;20.62;100.00
72560;BME280;62987;52.382;9.752;2023-06-22T15:43:32;100699.69;;;20.39;100.00
72560;BME280;62987;52.382;9.752;2023-06-22T15:46:00;100734.41;;;20.44;100.00
72560;BME280;62987;52.382;9.752;2023-06-22T15:48:30;100763.66;;;20.39;100.00
72560;BME280;62987;52.382;9.752;2023-06-22T15:50:59;100750.41;;;20.24;100.00
72560;BME280;62987;52.382;9.752;2023-06-22T15:53:28;100758.09;;;20.29;100.00
72560;BME280;62987;52.382;9.752;2023-06-22T15:55:56;100736.91;;;20.13;100.00
72560;BME280;62987;52.382;9.752;2023-06-22T15:58:24;100744.13;;;20.24;100.00
72560;BME280;62987;52.382;9.752;2023-06-22T16:00:52;100728.09;;;20.00;100.00
72560;BME280;62987;52.382;9.752;2023-06-22T16:03:21;100722.44;;;19.92;100.00
72560;BME280;62987;52.382;9.752;2023-06-22T16:05:51;100714.09;;;19.95;100.00
72560;BME280;62987;52.382;9.752;2023-06-22T16:08:21;100700.84;;;19.81;100.00
72560;BME280;62987;52.382;9.752;2023-06-22T16:10:52;100687.13;;;19.62;100.00
72560;BME280;62987;52.382;9.752;2023-06-22T16:13:22;100667.84;;;19.66;100.00
72560;BME280;62987;52.382;9.752;2023-06-22T16:15:50;100687.59;;;19.78;100.00
72560;BME280;62987;52.382;9.752;2023-06-22T16:18:18;100694.22;;;19.74;100.00
72560;BME280;62987;52.382;9.752;2023-06-22T16:20:46;100688.34;;;19.69;100.00
72560;BME280;62987;52.382;9.752;2023-06-22T16:23:16;100659.16;;;19.63;100.00
72560;BME280;62987;52.382;9.752;2023-06-22T16:25:44;100647.03;;;19.57;100.00
72560;BME280;62987;52.382;9.752;2023-06-22T16:28:12;100626.34;;;19.45;100.00
72560;BME280;62987;52.382;9.752;2023-06-22T16:30:45;100624.31;;;19.48;100.00
72560;BME280;62987;52.382;9.752;2023-06-22T16:33:16;100601.97;;;19.69;100.00
72560;BME280;62987;52.382;9.752;2023-06-22T16:35:44;100587.75;;;19.44;100.00
72560;BME280;62987;52.382;9.752;2023-06-22T16:38:12;100579.06;;;19.52;100.00
72560;BME280;62987;52.382;9.752;2023-06-22T16:40:42;100546.28;;;19.45;100.00
72560;BME280;62987;52.382;9.752;2023-06-22T16:43:10;100510.91;;;19.82;100.00
72560;BME280;62987;52.382;9.752;2023-06-22T16:45:38;100476.41;;;19.42;100.00
72560;BME280;62987;52.382;9.752;2023-06-22T16:48:06;100485.59;;;19.40;100.00
72560;BME280;62987;52.382;9.752;2023-06-22T16:50:34;100471.88;;;19.32;100.00
72560;BME280;62987;52.382;9.752;2023-06-22T16:53:05;100494.81;;;19.26;100.00
72560;BME280;62987;52.382;9.752;2023-06-22T16:55:34;100501.19;;;19.25;100.00
72560;BME280;62987;52.382;9.752;2023-06-22T16:58:05;100515.69;;;19.24;100.00
72560;BME280;62987;52.382;9.752;2023-06-22T17:00:33;100500.72;;;19.09;100.00
72560;BME280;62987;52.382;9.752;2023-06-22T17:03:05;100486.78;;;19.04;100.00
72560;BME280;62987;52.382;9.752;2023-06-22T17:05:39;100506.00;;;19.10;100.00
72560;BME280;62987;52.382;9.752;2023-06-22T17:08:08;100501.22;;;19.03;100.00
72560;BME280;62987;52.382;9.752;2023-06-22T17:10:40;100503.28;;;18.99;100.00
72560;BME280;62987;52.382;9.752;2023-06-22T17:13:10;100506.84;;;19.00;100.00
72560;BME280;62987;52.382;9.752;2023-06-22T17:15:41;100526.47;;;19.02;100.00
72560;BME280;62987;52.382;9.752;2023-06-22T17:18:11;100547.81;;;19.05;100.00
72560;BME280;62987;52.382;9.752;2023-06-22T17:20:42;100556.38;;;19.10;100.00
72560;BME280;62987;52.382;9.752;2023-06-22T17:23:10;100558.09;;;19.11;100.00
72560;BME280;62987;52.382;9.752;2023-06-22T17:25:41;100536.25;;;19.14;100.00
72560;BME280;62987;52.382;9.752;2023-06-22T17:28:11;100548.78;;;19.15;100.00
72560;BME280;62987;52.382;9.752;2023-06-22T17:30:39;100555.88;;;19.27;100.00
72560;BME280;62987;52.382;9.752;2023-06-22T17:33:08;100558.09;;;19.22;100.00
72560;BME280;62987;52.382;9.752;2023-06-22T17:35:45;100560.53;;;19.25;100.00
72560;BME280;62987;52.382;9.752;2023-06-22T17:38:20;100555.13;;;19.25;100.00
72560;BME280;62987;52.382;9.752;2023-06-22T17:40:48;100551.47;;;19.15;100.00
72560;BME280;62987;52.382;9.752;2023-06-22T17:43:19;100564.34;;;19.23;100.00
72560;BME280;62987;52.382;9.752;2023-06-22T17:45:48;100550.00;;;19.22;100.00
72560;BME280;62987;52.382;9.752;2023-06-22T17:48:16;100540.94;;;19.23;100.00
72560;BME280;62987;52.382;9.752;2023-06-22T17:50:48;100535.53;;;19.23;100.00
72560;BME280;62987;52.382;9.752;2023-06-22T17:53:16;100533.94;;;19.09;100.00
72560;BME280;62987;52.382;9.752;2023-06-22T17:55:52;100532.59;;;19.04;100.00
72560;BME280;62987;52.382;9.752;2023-06-22T17:58:21;100537.38;;;19.11;100.00
72560;BME280;62987;52.382;9.752;2023-06-22T18:00:49;100541.28;;;19.07;100.00
72560;BME280;62987;52.382;9.752;2023-06-22T18:03:23;100583.81;;;19.04;100.00
72560;BME280;62987;52.382;9.752;2023-06-22T18:05:54;100589.72;;;18.98;100.00
72560;BME280;62987;52.382;9.752;2023-06-22T18:08:25;100585.88;;;19.00;100.00
72560;BME280;62987;52.382;9.752;2023-06-22T18:10:56;100588.97;;;18.96;100.00
72560;BME280;62987;52.382;9.752;2023-06-22T18:13:27;100582.44;;;18.87;100.00
72560;BME280;62987;52.382;9.752;2023-06-22T18:15:57;100579.75;;;18.87;100.00
72560;BME280;62987;52.382;9.752;2023-06-22T18:18:26;100574.97;;;18.80;100.00
72560;BME280;62987;52.382;9.752;2023-06-22T18:20:55;100599.47;;;18.88;100.00
72560;BME280;62987;52.382;9.752;2023-06-22T18:23:27;100621.03;;;18.88;100.00
72560;BME280;62987;52.382;9.752;2023-06-22T18:26:03;60620.00;;;-143.13;100.00
72560;BME280;62987;52.382;9.752;2023-06-22T18:28:40;60620.00;;;-143.13;100.00
72560;BME280;62987;52.382;9.752;2023-06-22T18:31:08;60620.00;;;-143.13;100.00
72560;BME280;62987;52.382;9.752;2023-06-22T18:33:37;60620.00;;;-143.13;100.00
72560;BME280;62987;52.382;9.752;2023-06-22T18:36:05;60620.00;;;-143.13;100.00
72560;BME280;62987;52.382;9.752;2023-06-22T18:38:35;60620.00;;;-143.13;100.00
72560;BME280;62987;52.382;9.752;2023-06-22T18:41:03;60620.00;;;-143.13;100.00
72560;BME280;62987;52.382;9.752;2023-06-22T18:43:37;60620.00;;;-143.13;100.00
72560;BME280;62987;52.382;9.752;2023-06-22T18:46:31;60620.00;;;-143.13;100.00
72560;BME280;62987;52.382;9.752;2023-06-22T18:49:18;60620.00;;;-143.13;100.00
72560;BME280;62987;52.382;9.752;2023-06-22T18:51:55;60620.00;;;-143.13;100.00
72560;BME280;62987;52.382;9.752;2023-06-22T18:54:24;60620.00;;;-143.13;100.00
72560;BME280;62987;52.382;9.752;2023-06-22T18:56:59;60620.00;;;-143.13;100.00
72560;BME280;62987;52.382;9.752;2023-06-22T18:59:50;60620.00;;;-143.13;100.00
72560;BME280;62987;52.382;9.752;2023-06-22T19:02:44;60620.00;;;-143.13;100.00
72560;BME280;62987;52.382;9.752;2023-06-22T19:05:17;60620.00;;;-143.13;100.00
72560;BME280;62987;52.382;9.752;2023-06-22T19:08:03;60620.00;;;-143.13;100.00
72560;BME280;62987;52.382;9.752;2023-06-22T19:10:41;60620.00;;;-143.13;100.00
72560;BME280;62987;52.382;9.752;2023-06-22T19:13:44;60620.00;;;-143.13;100.00
72560;BME280;62987;52.382;9.752;2023-06-22T19:16:16;60620.00;;;-143.13;100.00
72560;BME280;62987;52.382;9.752;2023-06-22T19:18:48;60620.00;;;-143.13;100.00
72560;BME280;62987;52.382;9.752;2023-06-22T19:21:21;60620.00;;;-143.13;100.00
72560;BME280;62987;52.382;9.752;2023-06-22T19:23:50;60620.00;;;-143.13;100.00
72560;BME280;62987;52.382;9.752;2023-06-22T19:26:34;60620.00;;;-143.13;100.00
72560;BME280;62987;52.382;9.752;2023-06-22T19:29:15;60620.00;;;-143.13;100.00
72560;BME280;62987;52.382;9.752;2023-06-22T19:31:54;60620.00;;;-143.13;100.00
72560;BME280;62987;52.382;9.752;2023-06-22T19:34:25;60620.00;;;-143.13;100.00
72560;BME280;62987;52.382;9.752;2023-06-22T19:37:01;60620.00;;;-143.13;100.00
72560;BME280;62987;52.382;9.752;2023-06-22T19:39:34;60620.00;;;-143.13;100.00
72560;BME280;62987;52.382;9.752;2023-06-22T19:42:09;60620.00;;;-143.13;100.00
72560;BME280;62987;52.382;9.752;2023-06-22T19:44:37;60620.00;;;-143.13;100.00
72560;BME280;62987;52.382;9.752;2023-06-22T19:47:07;60620.00;;;-143.13;100.00
72560;BME280;62987;52.382;9.752;2023-06-22T19:49:35;60620.00;;;-143.13;100.00
72560;BME280;62987;52.382;9.752;2023-06-22T19:52:07;60620.00;;;-143.13;100.00
72560;BME280;62987;52.382;9.752;2023-06-22T19:54:38;60620.00;;;-143.13;100.00
72560;BME280;62987;52.382;9.752;2023-06-22T19:57:07;60620.00;;;-143.13;100.00
72560;BME280;62987;52.382;9.752;2023-06-22T19:59:38;60620.00;;;-143.13;100.00
72560;BME280;62987;52.382;9.752;2023-06-22T20:02:08;60620.00;;;-143.13;100.00
72560;BME280;62987;52.382;9.752;2023-06-22T20:04:37;60620.00;;;-143.13;100.00
72560;BME280;62987;52.382;9.752;2023-06-22T20:07:06;60620.00;;;-143.13;100.00
72560;BME280;62987;52.382;9.752;2023-06-22T20:09:35;60620.00;;;-143.13;100.00
72560;BME280;62987;52.382;9.752;2023-06-22T20:12:08;60620.00;;;-143.13;100.00
72560;BME280;62987;52.382;9.752;2023-06-22T20:14:37;60620.00;;;-143.13;100.00
72560;BME280;62987;52.382;9.752;2023-06-22T20:17:05;60620.00;;;-143.13;100.00
72560;BME280;62987;52.382;9.752;2023-06-22T20:19:37;60620.00;;;-143.13;100.00
72560;BME280;62987;52.382;9.752;2023-06-22T20:22:08;60620.00;;;-143.13;100.00
72560;BME280;62987;52.382;9.752;2023-06-22T20:24:37;60620.00;;;-143.13;100.00
72560;BME280;62987;52.382;9.752;2023-06-22T20:27:10;60620.00;;;-143.13;100.00
72560;BME280;62987;52.382;9.752;2023-06-22T20:29:38;60620.00;;;-143.13;100.00
72560;BME280;62987;52.382;9.752;2023-06-22T20:32:11;60620.00;;;-143.13;100.00
72560;BME280;62987;52.382;9.752;2023-06-22T20:34:43;60620.00;;;-143.13;100.00
72560;BME280;62987;52.382;9.752;2023-06-22T20:37:12;60620.00;;;-143.13;100.00
72560;BME280;62987;52.382;9.752;2023-06-22T20:39:41;60620.00;;;-143.13;100.00
72560;BME280;62987;52.382;9.752;2023-06-22T20:42:14;60620.00;;;-143.13;100.00
72560;BME280;62987;52.382;9.752;2023-06-22T20:44:44;60620.00;;;-143.13;100.00
72560;BME280;62987;52.382;9.752;2023-06-22T20:47:17;60620.00;;;-143.13;100.00
72560;BME280;62987;52.382;9.752;2023-06-22T20:49:48;60620.00;;;-143.13;100.00
72560;BME280;62987;52.382;9.752;2023-06-22T20:52:16;60620.00;;;-143.13;100.00
72560;BME280;62987;52.382;9.752;2023-06-22T20:54:45;60620.00;;;-143.13;100.00
72560;BME280;62987;52.382;9.752;2023-06-22T20:57:14;60620.00;;;-143.13;100.00
72560;BME280;62987;52.382;9.752;2023-06-22T20:59:42;60620.00;;;-143.13;100.00
72560;BME280;62987;52.382;9.752;2023-06-22T21:02:10;60620.00;;;-143.13;100.00
72560;BME280;62987;52.382;9.752;2023-06-22T21:04:38;60620.00;;;-143.13;100.00
72560;BME280;62987;52.382;9.752;2023-06-22T21:07:08;60620.00;;;-143.13;100.00
72560;BME280;62987;52.382;9.752;2023-06-22T21:09:36;60620.00;;;-143.13;100.00
72560;BME280;62987;52.382;9.752;2023-06-22T21:12:18;60620.00;;;-143.13;100.00
72560;BME280;62987;52.382;9.752;2023-06-22T21:14:46;60620.00;;;-143.13;100.00
72560;BME280;62987;52.382;9.752;2023-06-22T21:17:14;60620.00;;;-143.13;100.00
72560;BME280;62987;52.382;9.752;2023-06-22T21:19:42;60620.00;;;-143.13;100.00
72560;BME280;62987;52.382;9.752;2023-06-22T21:22:11;60620.00;;;-143.13;100.00
72560;BME280;62987;52.382;9.752;2023-06-22T21:24:39;60620.00;;;-143.13;100.00
72560;BME280;62987;52.382;9.752;2023-06-22T21:27:11;60620.00;;;-143.13;100.00
72560;BME280;62987;52.382;9.752;2023-06-22T21:29:39;60620.00;;;-143.13;100.00
72560;BME280;62987;52.382;9.752;2023-06-22T21:32:08;60620.00;;;-143.13;100.00
72560;BME280;62987;52.382;9.752;2023-06-22T21:34:36;60620.00;;;-143.13;100.00
72560;BME280;62987;52.382;9.752;2023-06-22T21:37:04;60620.00;;;-143.13;100.00
72560;BME280;62987;52.382;9.752;2023-06-22T21:39:33;60620.00;;;-143.13;100.00
72560;BME280;62987;52.382;9.752;2023-06-22T21:42:02;60620.00;;;-143.13;100.00
72560;BME280;62987;52.382;9.752;2023-06-22T21:44:30;60620.00;;;-143.13;100.00
72560;BME280;62987;52.382;9.752;2023-06-22T21:46:58;60620.00;;;-143.13;100.00
72560;BME280;62987;52.382;9.752;2023-06-22T21:49:27;60620.00;;;-143.13;100.00
72560;BME280;62987;52.382;9.752;2023-06-22T21:51:55;60620.00;;;-143.13;100.00
72560;BME280;62987;52.382;9.752;2023-06-22T21:54:22;60620.00;;;-143.13;100.00
72560;BME280;62987;52.382;9.752;2023-06-22T21:56:52;60620.00;;;-143.13;100.00
72560;BME280;62987;52.382;9.752;2023-06-22T21:59:20;60620.00;;;-143.13;100.00
72560;BME280;62987;52.382;9.752;2023-06-22T22:01:49;60620.00;;;-143.13;100.00
72560;BME280;62987;52.382;9.752;2023-06-22T22:04:17;60620.00;;;-143.13;100.00
72560;BME280;62987;52.382;9.752;2023-06-22T22:06:45;60620.00;;;-143.13;100.00
72560;BME280;62987;52.382;9.752;2023-06-22T22:09:17;60620.00;;;-143.13;100.00
72560;BME280;62987;52.382;9.752;2023-06-22T22:11:46;60620.00;;;-143.13;100.00
72560;BME280;62987;52.382;9.752;2023-06-22T22:14:16;60620.00;;;-143.13;100.00
72560;BME280;62987;52.382;9.752;2023-06-22T22:16:45;60620.00;;;-143.13;100.00
72560;BME280;62987;52.382;9.752;2023-06-22T22:19:13;60620.00;;;-143.13;100.00
72560;BME280;62987;52.382;9.752;2023-06-22T22:21:41;60620.00;;;-143.13;100.00
72560;BME280;62987;52.382;9.752;2023-06-22T22:24:10;60620.00;;;-143.13;100.00
72560;BME280;62987;52.382;9.752;2023-06-22T22:26:38;60620.00;;;-143.13;100.00
72560;BME280;62987;52.382;9.752;2023-06-22T22:29:06;60620.00;;;-143.13;100.00
72560;BME280;62987;52.382;9.752;2023-06-22T22:31:35;60620.00;;;-143.13;100.00
72560;BME280;62987;52.382;9.752;2023-06-22T22:34:06;60620.00;;;-143.13;100.00